sensor_id;sensor_type;location;lat;lon;timestamp;temperature;humidity
1570;DHT22;778;50.120;8.698;2023-04-08T00:01:26;9.20;99.90
1570;DHT22;778;50.120;8.698;2023-04-08T00:03:54;9.20;99.90
1570;DHT22;778;50.120;8.698;2023-04-08T00:06:23;9.20;99.90
1570;DHT22;778;50.120;8.698;2023-04-08T00:08:52;9.20;99.90
1570;DHT22;778;50.120;8.698;2023-04-08T00:11:21;9.20;99.90
1570;DHT22;778;50.120;8.698;2023-04-08T00:13:51;9.20;99.90
1570;DHT22;778;50.120;8.698;2023-04-08T00:16:19;9.20;99.90
1570;DHT22;778;50.120;8.698;2023-04-08T00:18:48;9.10;99.90
1570;DHT22;778;50.120;8.698;2023-04-08T00:21:17;9.10;99.90
1570;DHT22;778;50.120;8.698;2023-04-08T00:23:46;9.10;99.90
1570;DHT22;778;50.120;8.698;2023-04-08T00:26:15;9.00;99.90
1570;DHT22;778;50.120;8.698;2023-04-08T00:28:43;8.90;99.90
1570;DHT22;778;50.120;8.698;2023-04-08T00:31:14;8.80;99.90
1570;DHT22;778;50.120;8.698;2023-04-08T00:33:42;8.70;99.90
1570;DHT22;778;50.120;8.698;2023-04-08T00:36:11;8.60;99.90
1570;DHT22;778;50.120;8.698;2023-04-08T00:38:39;8.50;99.90
1570;DHT22;778;50.120;8.698;2023-04-08T00:41:08;8.50;99.90
1570;DHT22;778;50.120;8.698;2023-04-08T00:43:36;8.50;99.90
1570;DHT22;778;50.120;8.698;2023-04-08T00:46:05;8.50;99.90
1570;DHT22;778;50.120;8.698;2023-04-08T00:48:34;8.50;99.90
1570;DHT22;778;50.120;8.698;2023-04-08T00:51:03;8.50;99.90
1570;DHT22;778;50.120;8.698;2023-04-08T00:53:31;8.50;99.90
1570;DHT22;778;50.120;8.698;2023-04-08T00:56:00;8.50;99.90
1570;DHT22;778;50.120;8.698;2023-04-08T00:58:29;8.40;99.90
1570;DHT22;778;50.120;8.698;2023-04-08T01:01:02;8.40;99.90
1570;DHT22;778;50.120;8.698;2023-04-08T01:03:41;8.40;99.90
1570;DHT22;778;50.120;8.698;2023-04-08T01:06:21;8.40;99.90
1570;DHT22;778;50.120;8.698;2023-04-08T01:08:55;8.30;99.90
1570;DHT22;778;50.120;8.698;2023-04-08T01:11:26;8.30;99.90
1570;DHT22;778;50.120;8.698;2023-04-08T01:13:58;8.40;99.90
1570;DHT22;778;50.120;8.698;2023-04-08T01:16:28;8.30;99.90
1570;DHT22;778;50.120;8.698;2023-04-08T01:18:58;8.30;99.90
1570;DHT22;778;50.120;8.698;2023-04-08T01:21:27;8.20;99.90
1570;DHT22;778;50.120;8.698;2023-04-08T01:24:00;8.20;99.90
1570;DHT22;778;50.120;8.698;2023-04-08T01:26:35;8.20;99.90
1570;DHT22;778;50.120;8.698;2023-04-08T01:29:04;8.20;99.90
1570;DHT22;778;50.120;8.698;2023-04-08T01:31:35;8.10;99.90
1570;DHT22;778;50.120;8.698;2023-04-08T01:34:04;8.10;99.90
1570;DHT22;778;50.120;8.698;2023-04-08T01:36:34;8.00;99.90
1570;DHT22;778;50.120;8.698;2023-04-08T01:39:05;8.00;99.90
1570;DHT22;778;50.120;8.698;2023-04-08T01:41:35;8.10;99.90
1570;DHT22;778;50.120;8.698;2023-04-08T01:44:04;8.00;99.90
1570;DHT22;778;50.120;8.698;2023-04-08T01:46:34;8.00;99.90
1570;DHT22;778;50.120;8.698;2023-04-08T01:49:03;8.00;99.90
1570;DHT22;778;50.120;8.698;2023-04-08T01:51:35;7.80;99.90
1570;DHT22;778;50.120;8.698;2023-04-08T01:54:05;7.80;99.90
1570;DHT22;778;50.120;8.698;2023-04-08T01:56:38;7.80;99.90
1570;DHT22;778;50.120;8.698;2023-04-08T01:59:12;7.70;99.90
1570;DHT22;778;50.120;8.698;2023-04-08T02:01:43;7.60;99.90
1570;DHT22;778;50.120;8.698;2023-04-08T02:04:12;7.60;99.90
1570;DHT22;778;50.120;8.698;2023-04-08T02:06:42;7.60;99.90
1570;DHT22;778;50.120;8.698;2023-04-08T02:09:10;7.70;99.90
1570;DHT22;778;50.120;8.698;2023-04-08T02:11:40;7.70;99.90
1570;DHT22;778;50.120;8.698;2023-04-08T02:14:09;7.60;99.90
1570;DHT22;778;50.120;8.698;2023-04-08T02:16:40;7.70;99.90
1570;DHT22;778;50.120;8.698;2023-04-08T02:19:15;7.70;99.90
1570;DHT22;778;50.120;8.698;2023-04-08T02:21:50;7.60;99.90
1570;DHT22;778;50.120;8.698;2023-04-08T02:24:21;7.60;99.90
1570;DHT22;778;50.120;8.698;2023-04-08T02:26:51;7.60;99.90
1570;DHT22;778;50.120;8.698;2023-04-08T02:29:23;7.60;99.90
1570;DHT22;778;50.120;8.698;2023-04-08T02:31:53;7.50;99.90
1570;DHT22;778;50.120;8.698;2023-04-08T02:34:23;7.50;99.90
1570;DHT22;778;50.120;8.698;2023-04-08T02:36:53;7.50;99.90
1570;DHT22;778;50.120;8.698;2023-04-08T02:39:21;7.40;99.90
1570;DHT22;778;50.120;8.698;2023-04-08T02:41:59;7.40;99.90
1570;DHT22;778;50.120;8.698;2023-04-08T02:44:27;7.40;99.90
1570;DHT22;778;50.120;8.698;2023-04-08T02:46:58;7.40;99.90
1570;DHT22;778;50.120;8.698;2023-04-08T02:49:26;7.30;99.90
1570;DHT22;778;50.120;8.698;2023-04-08T02:51:55;7.30;99.90
1570;DHT22;778;50.120;8.698;2023-04-08T02:54:23;7.30;99.90
1570;DHT22;778;50.120;8.698;2023-04-08T02:56:52;7.30;99.90
1570;DHT22;778;50.120;8.698;2023-04-08T02:59:22;7.20;99.90
1570;DHT22;778;50.120;8.698;2023-04-08T03:01:50;7.20;99.90
1570;DHT22;778;50.120;8.698;2023-04-08T03:04:19;7.10;99.90
1570;DHT22;778;50.120;8.698;2023-04-08T03:06:47;7.00;99.90
1570;DHT22;778;50.120;8.698;2023-04-08T03:09:16;7.00;99.90
1570;DHT22;778;50.120;8.698;2023-04-08T03:11:44;7.00;99.90
1570;DHT22;778;50.120;8.698;2023-04-08T03:14:18;7.00;99.90
1570;DHT22;778;50.120;8.698;2023-04-08T03:16:48;7.00;99.90
1570;DHT22;778;50.120;8.698;2023-04-08T03:19:17;7.00;99.90
1570;DHT22;778;50.120;8.698;2023-04-08T03:21:45;7.00;99.90
1570;DHT22;778;50.120;8.698;2023-04-08T03:24:14;7.00;99.90
1570;DHT22;778;50.120;8.698;2023-04-08T03:26:42;7.00;99.90
1570;DHT22;778;50.120;8.698;2023-04-08T03:29:10;7.00;99.90
1570;DHT22;778;50.120;8.698;2023-04-08T03:31:39;6.90;99.90
1570;DHT22;778;50.120;8.698;2023-04-08T03:34:09;6.90;99.90
1570;DHT22;778;50.120;8.698;2023-04-08T03:36:37;6.80;99.90
1570;DHT22;778;50.120;8.698;2023-04-08T03:39:06;6.80;99.90
1570;DHT22;778;50.120;8.698;2023-04-08T03:41:34;6.90;99.90
1570;DHT22;778;50.120;8.698;2023-04-08T03:44:03;6.80;99.90
1570;DHT22;778;50.120;8.698;2023-04-08T03:46:31;6.80;99.90
1570;DHT22;778;50.120;8.698;2023-04-08T03:49:00;6.70;99.90
1570;DHT22;778;50.120;8.698;2023-04-08T03:51:29;6.70;99.90
1570;DHT22;778;50.120;8.698;2023-04-08T03:53:58;6.70;99.90
1570;DHT22;778;50.120;8.698;2023-04-08T03:56:26;6.60;99.90
1570;DHT22;778;50.120;8.698;2023-04-08T03:58:55;6.70;99.90
1570;DHT22;778;50.120;8.698;2023-04-08T04:01:23;6.70;99.90
1570;DHT22;778;50.120;8.698;2023-04-08T04:03:51;6.90;99.90
1570;DHT22;778;50.120;8.698;2023-04-08T04:06:20;7.10;99.90
1570;DHT22;778;50.120;8.698;2023-04-08T04:08:52;7.30;99.90
1570;DHT22;778;50.120;8.698;2023-04-08T04:11:21;7.20;99.90
1570;DHT22;778;50.120;8.698;2023-04-08T04:13:49;6.90;99.90
1570;DHT22;778;50.120;8.698;2023-04-08T04:16:17;6.80;99.90
1570;DHT22;778;50.120;8.698;2023-04-08T04:18:46;6.70;99.90
1570;DHT22;778;50.120;8.698;2023-04-08T04:21:15;6.70;99.90
1570;DHT22;778;50.120;8.698;2023-04-08T04:23:43;6.60;99.90
1570;DHT22;778;50.120;8.698;2023-04-08T04:26:13;6.60;99.90
1570;DHT22;778;50.120;8.698;2023-04-08T04:28:42;6.50;99.90
1570;DHT22;778;50.120;8.698;2023-04-08T04:31:17;6.50;99.90
1570;DHT22;778;50.120;8.698;2023-04-08T04:33:47;6.50;99.90
1570;DHT22;778;50.120;8.698;2023-04-08T04:36:16;6.50;99.90
1570;DHT22;778;50.120;8.698;2023-04-08T04:38:45;6.50;99.90
1570;DHT22;778;50.120;8.698;2023-04-08T04:41:17;6.50;99.90
1570;DHT22;778;50.120;8.698;2023-04-08T04:43:47;6.40;99.90
1570;DHT22;778;50.120;8.698;2023-04-08T04:46:16;6.30;99.90
1570;DHT22;778;50.120;8.698;2023-04-08T04:48:44;6.40;99.90
1570;DHT22;778;50.120;8.698;2023-04-08T04:51:13;6.40;99.90
1570;DHT22;778;50.120;8.698;2023-04-08T04:53:42;6.40;99.90
1570;DHT22;778;50.120;8.698;2023-04-08T04:56:10;6.40;99.90
1570;DHT22;778;50.120;8.698;2023-04-08T04:58:40;6.40;99.90
1570;DHT22;778;50.120;8.698;2023-04-08T05:01:08;6.40;99.90
1570;DHT22;778;50.120;8.698;2023-04-08T05:03:37;6.50;99.90
1570;DHT22;778;50.120;8.698;2023-04-08T05:06:05;6.40;99.90
1570;DHT22;778;50.120;8.698;2023-04-08T05:08:34;6.40;99.90
1570;DHT22;778;50.120;8.698;2023-04-08T05:11:02;6.40;99.90
1570;DHT22;778;50.120;8.698;2023-04-08T05:13:31;6.40;99.90
1570;DHT22;778;50.120;8.698;2023-04-08T05:16:01;6.40;99.90
1570;DHT22;778;50.120;8.698;2023-04-08T05:18:30;6.40;99.90
1570;DHT22;778;50.120;8.698;2023-04-08T05:20:58;6.40;99.90
1570;DHT22;778;50.120;8.698;2023-04-08T05:23:26;6.40;99.90
1570;DHT22;778;50.120;8.698;2023-04-08T05:25:55;6.40;99.90
1570;DHT22;778;50.120;8.698;2023-04-08T05:28:23;6.40;99.90
1570;DHT22;778;50.120;8.698;2023-04-08T05:30:52;6.40;99.90
1570;DHT22;778;50.120;8.698;2023-04-08T05:33:22;6.30;99.90
1570;DHT22;778;50.120;8.698;2023-04-08T05:35:52;6.40;99.90
1570;DHT22;778;50.120;8.698;2023-04-08T05:38:20;6.40;99.90
1570;DHT22;778;50.120;8.698;2023-04-08T05:40:49;6.40;99.90
1570;DHT22;778;50.120;8.698;2023-04-08T05:43:17;6.40;99.90
1570;DHT22;778;50.120;8.698;2023-04-08T05:45:45;6.40;99.90
1570;DHT22;778;50.120;8.698;2023-04-08T05:48:14;6.30;99.90
1570;DHT22;778;50.120;8.698;2023-04-08T05:50:43;6.40;99.90
1570;DHT22;778;50.120;8.698;2023-04-08T05:53:14;6.40;99.90
1570;DHT22;778;50.120;8.698;2023-04-08T05:55:42;6.50;99.90
1570;DHT22;778;50.120;8.698;2023-04-08T05:58:10;6.50;99.90
1570;DHT22;778;50.120;8.698;2023-04-08T06:00:39;6.60;99.90
1570;DHT22;778;50.120;8.698;2023-04-08T06:03:07;6.60;99.90
1570;DHT22;778;50.120;8.698;2023-04-08T06:05:36;6.60;99.90
1570;DHT22;778;50.120;8.698;2023-04-08T06:08:06;6.70;99.90
1570;DHT22;778;50.120;8.698;2023-04-08T06:10:34;6.70;99.90
1570;DHT22;778;50.120;8.698;2023-04-08T06:13:03;6.80;99.90
1570;DHT22;778;50.120;8.698;2023-04-08T06:15:31;6.80;99.90
1570;DHT22;778;50.120;8.698;2023-04-08T06:17:59;6.80;99.90
1570;DHT22;778;50.120;8.698;2023-04-08T06:20:28;6.90;99.90
1570;DHT22;778;50.120;8.698;2023-04-08T06:22:57;6.90;99.90
1570;DHT22;778;50.120;8.698;2023-04-08T06:25:26;6.90;99.90
1570;DHT22;778;50.120;8.698;2023-04-08T06:27:55;6.90;99.90
1570;DHT22;778;50.120;8.698;2023-04-08T06:30:23;7.00;99.90
1570;DHT22;778;50.120;8.698;2023-04-08T06:32:52;7.10;99.90
1570;DHT22;778;50.120;8.698;2023-04-08T06:35:20;7.10;99.90
1570;DHT22;778;50.120;8.698;2023-04-08T06:37:49;7.20;99.90
1570;DHT22;778;50.120;8.698;2023-04-08T06:40:17;7.20;99.90
1570;DHT22;778;50.120;8.698;2023-04-08T06:42:47;7.20;99.90
1570;DHT22;778;50.120;8.698;2023-04-08T06:45:27;7.20;99.90
1570;DHT22;778;50.120;8.698;2023-04-08T06:47:56;7.20;99.90
1570;DHT22;778;50.120;8.698;2023-04-08T06:50:24;7.20;99.90
1570;DHT22;778;50.120;8.698;2023-04-08T06:52:52;7.20;99.90
1570;DHT22;778;50.120;8.698;2023-04-08T06:55:21;7.20;99.90
1570;DHT22;778;50.120;8.698;2023-04-08T06:57:51;7.30;99.90
1570;DHT22;778;50.120;8.698;2023-04-08T07:00:19;7.30;99.90
1570;DHT22;778;50.120;8.698;2023-04-08T07:02:48;7.40;99.90
1570;DHT22;778;50.120;8.698;2023-04-08T07:05:16;7.50;99.90
1570;DHT22;778;50.120;8.698;2023-04-08T07:07:45;7.50;99.90
1570;DHT22;778;50.120;8.698;2023-04-08T07:10:14;7.50;99.90
1570;DHT22;778;50.120;8.698;2023-04-08T07:12:42;7.50;99.90
1570;DHT22;778;50.120;8.698;2023-04-08T07:15:12;7.50;99.90
1570;DHT22;778;50.120;8.698;2023-04-08T07:17:41;7.60;99.90
1570;DHT22;778;50.120;8.698;2023-04-08T07:20:10;7.80;99.90
1570;DHT22;778;50.120;8.698;2023-04-08T07:22:40;7.90;99.90
1570;DHT22;778;50.120;8.698;2023-04-08T07:25:10;8.00;99.90
1570;DHT22;778;50.120;8.698;2023-04-08T07:27:38;8.00;99.90
1570;DHT22;778;50.120;8.698;2023-04-08T07:30:08;8.20;99.90
1570;DHT22;778;50.120;8.698;2023-04-08T07:32:37;8.30;99.90
1570;DHT22;778;50.120;8.698;2023-04-08T07:35:07;8.30;99.90
1570;DHT22;778;50.120;8.698;2023-04-08T07:37:35;8.30;99.90
1570;DHT22;778;50.120;8.698;2023-04-08T07:40:05;8.40;99.90
1570;DHT22;778;50.120;8.698;2023-04-08T07:42:34;8.40;99.90
1570;DHT22;778;50.120;8.698;2023-04-08T07:45:05;8.50;99.90
1570;DHT22;778;50.120;8.698;2023-04-08T07:47:34;8.50;99.90
1570;DHT22;778;50.120;8.698;2023-04-08T07:50:05;8.50;99.90
1570;DHT22;778;50.120;8.698;2023-04-08T07:52:34;8.60;99.90
1570;DHT22;778;50.120;8.698;2023-04-08T07:55:03;8.50;99.90
1570;DHT22;778;50.120;8.698;2023-04-08T07:57:32;8.50;99.90
1570;DHT22;778;50.120;8.698;2023-04-08T08:00:00;8.50;99.90
1570;DHT22;778;50.120;8.698;2023-04-08T08:02:39;8.40;99.90
1570;DHT22;778;50.120;8.698;2023-04-08T08:05:09;8.40;99.90
1570;DHT22;778;50.120;8.698;2023-04-08T08:07:37;8.40;99.90
1570;DHT22;778;50.120;8.698;2023-04-08T08:10:07;8.40;99.90
1570;DHT22;778;50.120;8.698;2023-04-08T08:12:36;8.40;99.90
1570;DHT22;778;50.120;8.698;2023-04-08T08:15:05;8.40;99.90
1570;DHT22;778;50.120;8.698;2023-04-08T08:17:34;8.40;99.90
1570;DHT22;778;50.120;8.698;2023-04-08T08:20:04;8.40;99.90
1570;DHT22;778;50.120;8.698;2023-04-08T08:22:34;8.30;99.90
1570;DHT22;778;50.120;8.698;2023-04-08T08:25:22;8.30;99.90
1570;DHT22;778;50.120;8.698;2023-04-08T08:27:52;8.30;99.90
1570;DHT22;778;50.120;8.698;2023-04-08T08:30:21;8.20;99.90
1570;DHT22;778;50.120;8.698;2023-04-08T08:32:51;8.30;99.90
1570;DHT22;778;50.120;8.698;2023-04-08T08:35:19;8.30;99.90
1570;DHT22;778;50.120;8.698;2023-04-08T08:37:49;8.30;99.90
1570;DHT22;778;50.120;8.698;2023-04-08T08:40:18;8.30;99.90
1570;DHT22;778;50.120;8.698;2023-04-08T08:42:49;8.30;99.90
1570;DHT22;778;50.120;8.698;2023-04-08T08:45:19;8.30;99.90
1570;DHT22;778;50.120;8.698;2023-04-08T08:47:48;8.30;99.90
1570;DHT22;778;50.120;8.698;2023-04-08T08:50:17;8.30;99.90
1570;DHT22;778;50.120;8.698;2023-04-08T08:52:51;8.20;99.90
1570;DHT22;778;50.120;8.698;2023-04-08T08:55:20;8.10;99.90
1570;DHT22;778;50.120;8.698;2023-04-08T08:57:52;8.00;99.90
1570;DHT22;778;50.120;8.698;2023-04-08T09:00:30;8.00;99.90
1570;DHT22;778;50.120;8.698;2023-04-08T09:03:22;8.00;99.90
1570;DHT22;778;50.120;8.698;2023-04-08T09:05:53;8.10;99.90
1570;DHT22;778;50.120;8.698;2023-04-08T09:08:25;8.10;99.90
1570;DHT22;778;50.120;8.698;2023-04-08T09:10:55;8.20;99.90
1570;DHT22;778;50.120;8.698;2023-04-08T09:13:38;8.20;99.90
1570;DHT22;778;50.120;8.698;2023-04-08T09:16:08;8.20;99.90
1570;DHT22;778;50.120;8.698;2023-04-08T09:18:38;8.30;99.90
1570;DHT22;778;50.120;8.698;2023-04-08T09:21:06;8.40;99.90
1570;DHT22;778;50.120;8.698;2023-04-08T09:23:41;8.50;99.90
1570;DHT22;778;50.120;8.698;2023-04-08T09:26:12;8.50;99.90
1570;DHT22;778;50.120;8.698;2023-04-08T09:28:43;8.50;99.90
1570;DHT22;778;50.120;8.698;2023-04-08T09:31:22;8.50;99.90
1570;DHT22;778;50.120;8.698;2023-04-08T09:33:53;8.70;99.90
1570;DHT22;778;50.120;8.698;2023-04-08T09:36:23;8.80;99.90
1570;DHT22;778;50.120;8.698;2023-04-08T09:38:55;8.90;99.90
1570;DHT22;778;50.120;8.698;2023-04-08T09:41:27;9.00;99.90
1570;DHT22;778;50.120;8.698;2023-04-08T09:43:56;9.00;99.90
1570;DHT22;778;50.120;8.698;2023-04-08T09:46:30;9.10;99.90
1570;DHT22;778;50.120;8.698;2023-04-08T09:49:04;9.00;99.90
1570;DHT22;778;50.120;8.698;2023-04-08T09:51:40;9.10;99.90
1570;DHT22;778;50.120;8.698;2023-04-08T09:54:18;9.10;99.90
1570;DHT22;778;50.120;8.698;2023-04-08T09:56:53;9.10;99.90
1570;DHT22;778;50.120;8.698;2023-04-08T09:59:30;9.20;99.90
1570;DHT22;778;50.120;8.698;2023-04-08T10:02:06;9.20;99.90
1570;DHT22;778;50.120;8.698;2023-04-08T10:04:39;9.20;99.90
1570;DHT22;778;50.120;8.698;2023-04-08T10:07:08;9.30;99.90
1570;DHT22;778;50.120;8.698;2023-04-08T10:09:38;9.30;99.90
1570;DHT22;778;50.120;8.698;2023-04-08T10:12:09;9.30;99.90
1570;DHT22;778;50.120;8.698;2023-04-08T10:14:38;9.30;99.90
1570;DHT22;778;50.120;8.698;2023-04-08T10:17:25;9.40;99.90
1570;DHT22;778;50.120;8.698;2023-04-08T10:19:54;9.60;99.90
1570;DHT22;778;50.120;8.698;2023-04-08T10:22:45;9.90;99.90
1570;DHT22;778;50.120;8.698;2023-04-08T10:25:32;10.10;99.90
1570;DHT22;778;50.120;8.698;2023-04-08T10:28:24;10.10;99.90
1570;DHT22;778;50.120;8.698;2023-04-08T10:30:54;10.30;99.90
1570;DHT22;778;50.120;8.698;2023-04-08T10:33:30;10.50;99.90
1570;DHT22;778;50.120;8.698;2023-04-08T10:36:08;10.80;99.90
1570;DHT22;778;50.120;8.698;2023-04-08T10:38:38;11.20;99.90
1570;DHT22;778;50.120;8.698;2023-04-08T10:41:10;11.60;99.90
1570;DHT22;778;50.120;8.698;2023-04-08T10:43:40;11.60;99.90
1570;DHT22;778;50.120;8.698;2023-04-08T10:46:10;11.70;99.90
1570;DHT22;778;50.120;8.698;2023-04-08T10:48:38;11.60;99.90
1570;DHT22;778;50.120;8.698;2023-04-08T10:51:07;11.40;99.90
1570;DHT22;778;50.120;8.698;2023-04-08T10:53:36;11.50;99.90
1570;DHT22;778;50.120;8.698;2023-04-08T10:56:08;11.60;99.90
1570;DHT22;778;50.120;8.698;2023-04-08T10:58:47;11.30;99.90
1570;DHT22;778;50.120;8.698;2023-04-08T11:01:16;11.60;99.90
1570;DHT22;778;50.120;8.698;2023-04-08T11:03:45;11.50;99.90
1570;DHT22;778;50.120;8.698;2023-04-08T11:06:14;11.50;99.90
1570;DHT22;778;50.120;8.698;2023-04-08T11:08:43;11.40;99.90
1570;DHT22;778;50.120;8.698;2023-04-08T11:11:13;11.40;99.90
1570;DHT22;778;50.120;8.698;2023-04-08T11:13:44;11.40;99.90
1570;DHT22;778;50.120;8.698;2023-04-08T11:16:20;11.30;99.90
1570;DHT22;778;50.120;8.698;2023-04-08T11:18:50;11.60;99.90
1570;DHT22;778;50.120;8.698;2023-04-08T11:21:19;11.80;99.90
1570;DHT22;778;50.120;8.698;2023-04-08T11:23:48;11.50;99.90
1570;DHT22;778;50.120;8.698;2023-04-08T11:26:21;11.50;99.90
1570;DHT22;778;50.120;8.698;2023-04-08T11:28:49;11.30;99.90
1570;DHT22;778;50.120;8.698;2023-04-08T11:31:18;11.10;99.90
1570;DHT22;778;50.120;8.698;2023-04-08T11:33:53;10.90;99.90
1570;DHT22;778;50.120;8.698;2023-04-08T11:36:22;11.00;99.90
1570;DHT22;778;50.120;8.698;2023-04-08T11:38:53;11.00;99.90
1570;DHT22;778;50.120;8.698;2023-04-08T11:41:23;11.10;99.90
1570;DHT22;778;50.120;8.698;2023-04-08T11:43:53;11.20;99.90
1570;DHT22;778;50.120;8.698;2023-04-08T11:46:23;11.30;99.90
1570;DHT22;778;50.120;8.698;2023-04-08T11:48:59;11.40;99.90
1570;DHT22;778;50.120;8.698;2023-04-08T11:51:29;11.40;99.90
1570;DHT22;778;50.120;8.698;2023-04-08T11:53:57;11.30;99.90
1570;DHT22;778;50.120;8.698;2023-04-08T11:56:27;11.20;99.90
1570;DHT22;778;50.120;8.698;2023-04-08T11:58:59;11.20;99.90
1570;DHT22;778;50.120;8.698;2023-04-08T12:01:28;11.10;99.90
1570;DHT22;778;50.120;8.698;2023-04-08T12:03:58;11.40;99.90
1570;DHT22;778;50.120;8.698;2023-04-08T12:06:27;11.60;99.90
1570;DHT22;778;50.120;8.698;2023-04-08T12:08:57;11.60;99.90
1570;DHT22;778;50.120;8.698;2023-04-08T12:11:27;11.60;99.90
1570;DHT22;778;50.120;8.698;2023-04-08T12:13:56;11.90;99.90
1570;DHT22;778;50.120;8.698;2023-04-08T12:16:24;12.10;99.90
1570;DHT22;778;50.120;8.698;2023-04-08T12:18:53;12.10;99.90
1570;DHT22;778;50.120;8.698;2023-04-08T12:21:21;12.00;99.90
1570;DHT22;778;50.120;8.698;2023-04-08T12:23:50;12.30;99.90
1570;DHT22;778;50.120;8.698;2023-04-08T12:26:19;12.40;99.90
1570;DHT22;778;50.120;8.698;2023-04-08T12:28:49;12.30;99.90
1570;DHT22;778;50.120;8.698;2023-04-08T12:31:17;11.90;99.90
1570;DHT22;778;50.120;8.698;2023-04-08T12:33:46;11.90;99.90
1570;DHT22;778;50.120;8.698;2023-04-08T12:36:14;12.10;99.90
1570;DHT22;778;50.120;8.698;2023-04-08T12:38:43;12.10;99.90
1570;DHT22;778;50.120;8.698;2023-04-08T12:41:11;12.20;99.90
1570;DHT22;778;50.120;8.698;2023-04-08T12:43:40;12.40;99.90
1570;DHT22;778;50.120;8.698;2023-04-08T12:46:10;12.40;99.90
1570;DHT22;778;50.120;8.698;2023-04-08T12:48:39;12.40;99.90
1570;DHT22;778;50.120;8.698;2023-04-08T12:51:08;12.30;99.90
1570;DHT22;778;50.120;8.698;2023-04-08T12:53:36;12.40;99.90
1570;DHT22;778;50.120;8.698;2023-04-08T12:56:05;12.30;99.90
1570;DHT22;778;50.120;8.698;2023-04-08T12:58:34;12.20;99.90
1570;DHT22;778;50.120;8.698;2023-04-08T13:01:02;12.30;99.90
1570;DHT22;778;50.120;8.698;2023-04-08T13:03:32;12.40;99.90
1570;DHT22;778;50.120;8.698;2023-04-08T13:06:02;11.90;99.90
1570;DHT22;778;50.120;8.698;2023-04-08T13:08:30;12.00;99.90
1570;DHT22;778;50.120;8.698;2023-04-08T13:10:59;12.00;99.90
1570;DHT22;778;50.120;8.698;2023-04-08T13:13:27;12.20;99.90
1570;DHT22;778;50.120;8.698;2023-04-08T13:15:56;12.40;99.90
1570;DHT22;778;50.120;8.698;2023-04-08T13:18:24;12.50;99.90
1570;DHT22;778;50.120;8.698;2023-04-08T13:20:54;12.40;99.90
1570;DHT22;778;50.120;8.698;2023-04-08T13:23:24;12.40;99.90
1570;DHT22;778;50.120;8.698;2023-04-08T13:25:52;11.90;99.90
1570;DHT22;778;50.120;8.698;2023-04-08T13:28:20;12.00;99.90
1570;DHT22;778;50.120;8.698;2023-04-08T13:30:49;11.90;99.90
1570;DHT22;778;50.120;8.698;2023-04-08T13:33:17;11.90;99.90
1570;DHT22;778;50.120;8.698;2023-04-08T13:35:45;11.90;99.90
1570;DHT22;778;50.120;8.698;2023-04-08T13:38:15;11.80;99.90
1570;DHT22;778;50.120;8.698;2023-04-08T13:40:44;11.70;99.90
1570;DHT22;778;50.120;8.698;2023-04-08T13:43:14;11.80;99.90
1570;DHT22;778;50.120;8.698;2023-04-08T13:45:43;11.80;99.90
1570;DHT22;778;50.120;8.698;2023-04-08T13:48:12;11.70;99.90
1570;DHT22;778;50.120;8.698;2023-04-08T13:50:40;11.80;99.90
1570;DHT22;778;50.120;8.698;2023-04-08T13:53:09;11.70;99.90
1570;DHT22;778;50.120;8.698;2023-04-08T13:55:39;11.50;99.90
1570;DHT22;778;50.120;8.698;2023-04-08T13:58:08;11.60;99.90
1570;DHT22;778;50.120;8.698;2023-04-08T14:00:49;11.50;99.90
1570;DHT22;778;50.120;8.698;2023-04-08T14:03:18;11.40;99.90
1570;DHT22;778;50.120;8.698;2023-04-08T14:05:46;11.40;99.90
1570;DHT22;778;50.120;8.698;2023-04-08T14:08:16;11.30;99.90
1570;DHT22;778;50.120;8.698;2023-04-08T14:10:54;11.40;99.90
1570;DHT22;778;50.120;8.698;2023-04-08T14:13:23;11.50;99.90
1570;DHT22;778;50.120;8.698;2023-04-08T14:15:51;11.50;99.90
1570;DHT22;778;50.120;8.698;2023-04-08T14:18:22;11.60;99.90
1570;DHT22;778;50.120;8.698;2023-04-08T14:20:50;11.40;99.90
1570;DHT22;778;50.120;8.698;2023-04-08T14:23:18;11.30;99.90
1570;DHT22;778;50.120;8.698;2023-04-08T14:25:47;11.30;99.90
1570;DHT22;778;50.120;8.698;2023-04-08T14:28:16;11.40;99.90
1570;DHT22;778;50.120;8.698;2023-04-08T14:30:45;11.40;99.90
1570;DHT22;778;50.120;8.698;2023-04-08T14:33:13;11.50;99.90
1570;DHT22;778;50.120;8.698;2023-04-08T14:35:42;11.60;99.90
1570;DHT22;778;50.120;8.698;2023-04-08T14:38:10;11.60;99.90
1570;DHT22;778;50.120;8.698;2023-04-08T14:40:39;11.60;99.90
1570;DHT22;778;50.120;8.698;2023-04-08T14:43:07;11.60;99.90
1570;DHT22;778;50.120;8.698;2023-04-08T14:45:37;11.70;99.90
1570;DHT22;778;50.120;8.698;2023-04-08T14:48:05;11.70;99.90
1570;DHT22;778;50.120;8.698;2023-04-08T14:50:35;11.70;99.90
1570;DHT22;778;50.120;8.698;2023-04-08T14:53:03;11.60;99.90
1570;DHT22;778;50.120;8.698;2023-04-08T14:55:32;11.70;99.90
1570;DHT22;778;50.120;8.698;2023-04-08T14:58:00;11.70;99.90
1570;DHT22;778;50.120;8.698;2023-04-08T15:00:29;11.80;99.90
1570;DHT22;778;50.120;8.698;2023-04-08T15:02:58;11.70;99.90
1570;DHT22;778;50.120;8.698;2023-04-08T15:05:27;11.70;99.90
1570;DHT22;778;50.120;8.698;2023-04-08T15:07:55;11.70;99.90
1570;DHT22;778;50.120;8.698;2023-04-08T15:10:24;11.80;99.90
1570;DHT22;778;50.120;8.698;2023-04-08T15:12:53;11.90;99.90
1570;DHT22;778;50.120;8.698;2023-04-08T15:15:22;11.90;99.90
1570;DHT22;778;50.120;8.698;2023-04-08T15:17:50;12.00;99.90
1570;DHT22;778;50.120;8.698;2023-04-08T15:20:20;12.00;99.90
1570;DHT22;778;50.120;8.698;2023-04-08T15:22:49;12.10;99.90
1570;DHT22;778;50.120;8.698;2023-04-08T15:25:17;12.10;99.90
1570;DHT22;778;50.120;8.698;2023-04-08T15:27:46;12.20;99.90
1570;DHT22;778;50.120;8.698;2023-04-08T15:30:15;12.20;99.90
1570;DHT22;778;50.120;8.698;2023-04-08T15:32:50;12.20;99.90
1570;DHT22;778;50.120;8.698;2023-04-08T15:35:22;12.30;99.90
1570;DHT22;778;50.120;8.698;2023-04-08T15:37:50;12.40;99.90
1570;DHT22;778;50.120;8.698;2023-04-08T15:40:18;12.40;99.90
1570;DHT22;778;50.120;8.698;2023-04-08T15:42:47;12.30;99.90
1570;DHT22;778;50.120;8.698;2023-04-08T15:45:16;12.30;99.90
1570;DHT22;778;50.120;8.698;2023-04-08T15:47:44;12.30;99.90
1570;DHT22;778;50.120;8.698;2023-04-08T15:50:13;12.30;99.90
1570;DHT22;778;50.120;8.698;2023-04-08T15:52:44;12.30;99.90
1570;DHT22;778;50.120;8.698;2023-04-08T15:55:13;12.30;99.90
1570;DHT22;778;50.120;8.698;2023-04-08T15:57:41;12.30;99.90
1570;DHT22;778;50.120;8.698;2023-04-08T16:00:10;12.10;99.90
1570;DHT22;778;50.120;8.698;2023-04-08T16:02:42;12.10;99.90
1570;DHT22;778;50.120;8.698;2023-04-08T16:05:12;12.10;99.90
1570;DHT22;778;50.120;8.698;2023-04-08T16:07:41;12.10;99.90
1570;DHT22;778;50.120;8.698;2023-04-08T16:10:11;12.10;99.90
1570;DHT22;778;50.120;8.698;2023-04-08T16:12:39;12.00;99.90
1570;DHT22;778;50.120;8.698;2023-04-08T16:15:08;12.00;99.90
1570;DHT22;778;50.120;8.698;2023-04-08T16:17:37;12.00;99.90
1570;DHT22;778;50.120;8.698;2023-04-08T16:20:06;12.00;99.90
1570;DHT22;778;50.120;8.698;2023-04-08T16:22:35;11.90;99.90
1570;DHT22;778;50.120;8.698;2023-04-08T16:25:04;11.90;99.90
1570;DHT22;778;50.120;8.698;2023-04-08T16:27:35;12.00;99.90
1570;DHT22;778;50.120;8.698;2023-04-08T16:30:05;12.00;99.90
1570;DHT22;778;50.120;8.698;2023-04-08T16:32:34;12.00;99.90
1570;DHT22;778;50.120;8.698;2023-04-08T16:35:03;12.00;99.90
1570;DHT22;778;50.120;8.698;2023-04-08T16:37:32;12.00;99.90
1570;DHT22;778;50.120;8.698;2023-04-08T16:40:00;12.00;99.90
1570;DHT22;778;50.120;8.698;2023-04-08T16:42:29;12.00;99.90
1570;DHT22;778;50.120;8.698;2023-04-08T16:45:00;12.00;99.90